SBI320 UEEE-UHMP
Flight info
| Callsign | SBI320 |
|---|---|
| Flight time | 2h 40m |
| Altitude | 35000 |
| Route | DOBUS6E DOBUS W290 LULEN W68 OLMIN N738 RESBU RESBU1L |
| Aircraft | A319/M-SDE3FGHIRWY/LB1 |
Departure
| Time | 2026-04-24 16:24 |
|---|---|
| Airport | Platon Oyunsky Yakutsk International Airport (UEEE) |
Arrival
| Time | 2026-04-24 19:04 |
|---|---|
| Airport | Pevek Airport (UHMP) |
| Time | Latitude | Longitude | Altitude | Speed | Heading |
|---|---|---|---|---|---|
| 2026-04-24 15:47 | 62.08784 | 129.75439 | 331 ft | 0 kts | 299° |
| 2026-04-24 16:19 | 62.08786 | 129.75434 | 331 ft | 1 kts | 299° |
| 2026-04-24 16:19 | 62.08796 | 129.75386 | 330 ft | 8 kts | 282° |
| 2026-04-24 16:20 | 62.08711 | 129.75462 | 330 ft | 12 kts | 113° |
| 2026-04-24 16:20 | 62.08617 | 129.75821 | 328 ft | 16 kts | 123° |
| 2026-04-24 16:20 | 62.08564 | 129.75974 | 331 ft | 8 kts | 125° |
| 2026-04-24 16:21 | 62.08503 | 129.76162 | 330 ft | 5 kts | 112° |
| 2026-04-24 16:21 | 62.08524 | 129.76223 | 329 ft | 6 kts | 33° |
| 2026-04-24 16:21 | 62.08528 | 129.76229 | 329 ft | 0 kts | 35° |
| 2026-04-24 16:23 | 62.08556 | 129.76269 | 331 ft | 23 kts | 37° |
| 2026-04-24 16:23 | 62.08962 | 129.76913 | 331 ft | 118 kts | 36° |
| 2026-04-24 16:24 | 62.10773 | 129.79721 | 1579 ft | 166 kts | 36° |
| 2026-04-24 16:24 | 62.11748 | 129.81221 | 2103 ft | 184 kts | 37° |
| 2026-04-24 16:24 | 62.12832 | 129.83004 | 2517 ft | 206 kts | 38° |
| 2026-04-24 16:24 | 62.14038 | 129.85061 | 2867 ft | 236 kts | 39° |
| 2026-04-24 16:25 | 62.15392 | 129.87338 | 3464 ft | 255 kts | 38° |
| 2026-04-24 16:25 | 62.16821 | 129.89653 | 4466 ft | 260 kts | 37° |
| 2026-04-24 16:25 | 62.18284 | 129.91974 | 5474 ft | 263 kts | 37° |
| 2026-04-24 16:26 | 62.21088 | 129.97087 | 7374 ft | 269 kts | 57° |
| 2026-04-24 16:26 | 62.21897 | 130.00660 | 8268 ft | 272 kts | 73° |
| 2026-04-24 16:26 | 62.22870 | 130.08678 | 10051 ft | 281 kts | 75° |
| 2026-04-24 16:27 | 62.23399 | 130.12717 | 10933 ft | 282 kts | 75° |
| 2026-04-24 16:27 | 62.23954 | 130.16867 | 11391 ft | 301 kts | 73° |
| 2026-04-24 16:27 | 62.24600 | 130.21329 | 11687 ft | 324 kts | 73° |
| 2026-04-24 16:27 | 62.25286 | 130.26025 | 12047 ft | 341 kts | 73° |
| 2026-04-24 16:28 | 62.25991 | 130.30920 | 12793 ft | 346 kts | 73° |
| 2026-04-24 16:28 | 62.26700 | 130.35901 | 13501 ft | 352 kts | 74° |
| 2026-04-24 16:28 | 62.28112 | 130.46071 | 14909 ft | 358 kts | 75° |
| 2026-04-24 16:29 | 62.28787 | 130.51251 | 15586 ft | 362 kts | 76° |
| 2026-04-24 16:29 | 62.29457 | 130.56503 | 16266 ft | 365 kts | 76° |
| 2026-04-24 16:29 | 62.31272 | 130.66837 | 17601 ft | 375 kts | 64° |
| 2026-04-24 16:30 | 62.33673 | 130.76902 | 18856 ft | 382 kts | 64° |
| 2026-04-24 16:30 | 62.34896 | 130.82026 | 19436 ft | 386 kts | 64° |
| 2026-04-24 16:30 | 62.36125 | 130.87186 | 20013 ft | 389 kts | 64° |
| 2026-04-24 16:31 | 62.37365 | 130.92409 | 20596 ft | 392 kts | 65° |
| 2026-04-24 16:31 | 62.38611 | 130.97674 | 21178 ft | 396 kts | 65° |
| 2026-04-24 16:31 | 62.39860 | 131.02985 | 21735 ft | 399 kts | 65° |
| 2026-04-24 16:31 | 62.41101 | 131.08289 | 22270 ft | 402 kts | 65° |
| 2026-04-24 16:32 | 62.41951 | 131.11926 | 22643 ft | 404 kts | 65° |
| 2026-04-24 16:32 | 62.43650 | 131.19214 | 23332 ft | 409 kts | 65° |
| 2026-04-24 16:32 | 62.44933 | 131.24716 | 23815 ft | 412 kts | 65° |
| 2026-04-24 16:32 | 62.46224 | 131.30272 | 24228 ft | 415 kts | 65° |
| 2026-04-24 16:33 | 62.47520 | 131.35861 | 24664 ft | 417 kts | 65° |
| 2026-04-24 16:33 | 62.48823 | 131.41495 | 25090 ft | 420 kts | 66° |
| 2026-04-24 16:33 | 62.50132 | 131.47161 | 25516 ft | 422 kts | 66° |
| 2026-04-24 16:33 | 62.51449 | 131.52869 | 25937 ft | 425 kts | 66° |
| 2026-04-24 16:34 | 62.52766 | 131.58602 | 26353 ft | 427 kts | 66° |
| 2026-04-24 16:34 | 62.54088 | 131.64391 | 26766 ft | 429 kts | 66° |
| 2026-04-24 16:34 | 62.55411 | 131.70212 | 27175 ft | 432 kts | 66° |
| 2026-04-24 16:34 | 62.56740 | 131.76074 | 27577 ft | 434 kts | 67° |
| 2026-04-24 16:35 | 62.58077 | 131.81975 | 27980 ft | 436 kts | 67° |
| 2026-04-24 16:35 | 62.59418 | 131.87904 | 28365 ft | 439 kts | 67° |
| 2026-04-24 16:35 | 62.60764 | 131.93872 | 28727 ft | 441 kts | 67° |
| 2026-04-24 16:35 | 62.62108 | 131.99853 | 29085 ft | 443 kts | 67° |
| 2026-04-24 16:36 | 62.63462 | 132.05898 | 29454 ft | 445 kts | 68° |
| 2026-04-24 16:36 | 62.64819 | 132.11976 | 29798 ft | 448 kts | 68° |
| 2026-04-24 16:36 | 62.66179 | 132.18072 | 30144 ft | 450 kts | 68° |
| 2026-04-24 16:36 | 62.67565 | 132.24321 | 30440 ft | 452 kts | 68° |
| 2026-04-24 16:37 | 62.68909 | 132.30392 | 30831 ft | 451 kts | 68° |
| 2026-04-24 16:37 | 62.70390 | 132.36441 | 31231 ft | 453 kts | 61° |
| 2026-04-24 16:37 | 62.71600 | 132.40261 | 31502 ft | 455 kts | 56° |
| 2026-04-24 16:37 | 62.74143 | 132.47501 | 32030 ft | 454 kts | 56° |
| 2026-04-24 16:38 | 62.76059 | 132.52975 | 32454 ft | 453 kts | 56° |
| 2026-04-24 16:38 | 62.77961 | 132.58441 | 32851 ft | 452 kts | 56° |
| 2026-04-24 16:38 | 62.79855 | 132.63914 | 33244 ft | 451 kts | 57° |
| 2026-04-24 16:38 | 62.81740 | 132.69383 | 33645 ft | 450 kts | 57° |
| 2026-04-24 16:39 | 62.83624 | 132.74868 | 34056 ft | 449 kts | 57° |
| 2026-04-24 16:39 | 62.85502 | 132.80352 | 34415 ft | 449 kts | 57° |
| 2026-04-24 16:39 | 62.87372 | 132.85814 | 34722 ft | 449 kts | 56° |
| 2026-04-24 16:39 | 62.89249 | 132.91300 | 35024 ft | 449 kts | 56° |
| 2026-04-24 16:40 | 62.92993 | 133.02285 | 35128 ft | 449 kts | 56° |
| 2026-04-24 16:40 | 62.96721 | 133.13254 | 35122 ft | 448 kts | 56° |
| 2026-04-24 16:41 | 63.00440 | 133.24297 | 35122 ft | 448 kts | 57° |
| 2026-04-24 16:41 | 63.04146 | 133.35340 | 35125 ft | 448 kts | 57° |
| 2026-04-24 16:42 | 63.07849 | 133.46416 | 35125 ft | 447 kts | 57° |
| 2026-04-24 16:42 | 63.11530 | 133.57503 | 35122 ft | 448 kts | 57° |
| 2026-04-24 16:43 | 63.15212 | 133.68618 | 35123 ft | 447 kts | 57° |
| 2026-04-24 16:43 | 63.18879 | 133.79743 | 35120 ft | 447 kts | 57° |
| 2026-04-24 16:44 | 63.22512 | 133.90830 | 35122 ft | 447 kts | 57° |
| 2026-04-24 16:44 | 63.26158 | 134.01998 | 35124 ft | 446 kts | 57° |
| 2026-04-24 16:45 | 63.29783 | 134.13199 | 35122 ft | 446 kts | 57° |
| 2026-04-24 16:45 | 63.33396 | 134.24425 | 35126 ft | 445 kts | 57° |
| 2026-04-24 16:46 | 63.37004 | 134.35650 | 35127 ft | 445 kts | 57° |
| 2026-04-24 16:46 | 63.40608 | 134.46894 | 35128 ft | 445 kts | 57° |
| 2026-04-24 16:47 | 63.44199 | 134.58135 | 35129 ft | 444 kts | 57° |
| 2026-04-24 16:47 | 63.47766 | 134.69415 | 35129 ft | 444 kts | 57° |
| 2026-04-24 16:48 | 63.50725 | 134.78827 | 35141 ft | 444 kts | 57° |
| 2026-04-24 16:48 | 63.54278 | 134.90157 | 35145 ft | 444 kts | 57° |
| 2026-04-24 16:49 | 63.58394 | 135.03346 | 35144 ft | 444 kts | 57° |
| 2026-04-24 16:49 | 63.61922 | 135.14711 | 35141 ft | 444 kts | 57° |
| 2026-04-24 16:50 | 63.64879 | 135.24281 | 35148 ft | 444 kts | 57° |
| 2026-04-24 16:50 | 63.68368 | 135.35630 | 35159 ft | 444 kts | 57° |
| 2026-04-24 16:51 | 63.71878 | 135.47092 | 35164 ft | 443 kts | 57° |
| 2026-04-24 16:51 | 63.75370 | 135.58579 | 35166 ft | 443 kts | 57° |
| 2026-04-24 16:52 | 63.78845 | 135.70083 | 35173 ft | 443 kts | 57° |
| 2026-04-24 16:52 | 63.82324 | 135.81629 | 35177 ft | 443 kts | 57° |
| 2026-04-24 16:53 | 63.85790 | 135.93178 | 35177 ft | 443 kts | 57° |
| 2026-04-24 16:53 | 63.89241 | 136.04761 | 35183 ft | 443 kts | 57° |
| 2026-04-24 16:54 | 63.92680 | 136.16383 | 35178 ft | 443 kts | 57° |
| 2026-04-24 16:54 | 63.96117 | 136.28007 | 35175 ft | 442 kts | 57° |
| 2026-04-24 16:55 | 63.99542 | 136.39666 | 35176 ft | 442 kts | 57° |
| 2026-04-24 16:55 | 64.02956 | 136.51352 | 35175 ft | 442 kts | 57° |
| 2026-04-24 16:56 | 64.06351 | 136.63048 | 35173 ft | 442 kts | 57° |
| 2026-04-24 16:56 | 64.09731 | 136.74721 | 35201 ft | 446 kts | 56° |
| 2026-04-24 16:57 | 64.13148 | 136.86599 | 35179 ft | 447 kts | 56° |
| 2026-04-24 16:57 | 64.16552 | 136.98532 | 35181 ft | 448 kts | 56° |
| 2026-04-24 16:58 | 64.19959 | 137.10509 | 35178 ft | 448 kts | 56° |
| 2026-04-24 16:58 | 64.23362 | 137.22531 | 35184 ft | 449 kts | 56° |
| 2026-04-24 16:59 | 64.26758 | 137.34596 | 35189 ft | 449 kts | 56° |
| 2026-04-24 17:00 | 64.31825 | 137.52740 | 35199 ft | 449 kts | 56° |
| 2026-04-24 17:00 | 64.36875 | 137.70950 | 35222 ft | 449 kts | 56° |
| 2026-04-24 17:01 | 64.41883 | 137.89134 | 35230 ft | 448 kts | 56° |
| 2026-04-24 17:02 | 64.46883 | 138.07435 | 35237 ft | 448 kts | 56° |
| 2026-04-24 17:02 | 64.50200 | 138.19703 | 35240 ft | 448 kts | 56° |
| 2026-04-24 17:03 | 64.55158 | 138.38098 | 35247 ft | 448 kts | 56° |
| 2026-04-24 17:04 | 64.58442 | 138.50410 | 35250 ft | 447 kts | 56° |
| 2026-04-24 17:04 | 64.63350 | 138.68893 | 35249 ft | 447 kts | 56° |
| 2026-04-24 17:05 | 64.66574 | 138.81153 | 35250 ft | 446 kts | 56° |
| 2026-04-24 17:06 | 64.71436 | 138.99708 | 35260 ft | 445 kts | 56° |
| 2026-04-24 17:06 | 64.76264 | 139.18324 | 35258 ft | 445 kts | 57° |
| 2026-04-24 17:07 | 64.79440 | 139.30665 | 35256 ft | 444 kts | 56° |
| 2026-04-24 17:08 | 64.85802 | 139.55550 | 35248 ft | 444 kts | 57° |
| 2026-04-24 17:08 | 64.88962 | 139.68041 | 35246 ft | 444 kts | 57° |
| 2026-04-24 17:09 | 64.95248 | 139.93080 | 35260 ft | 443 kts | 57° |
| 2026-04-24 17:10 | 65.01463 | 140.18129 | 35280 ft | 442 kts | 57° |
| 2026-04-24 17:12 | 65.13780 | 140.68540 | 35310 ft | 441 kts | 57° |
| 2026-04-24 18:54 | 69.60803 | 169.92861 | 9604 ft | 248 kts | 110° |
| 2026-04-24 18:55 | 69.59493 | 170.01955 | 8938 ft | 243 kts | 110° |
| 2026-04-24 18:55 | 69.58856 | 170.06355 | 8602 ft | 241 kts | 110° |
| 2026-04-24 18:55 | 69.58213 | 170.10774 | 8264 ft | 240 kts | 110° |
| 2026-04-24 18:56 | 69.57574 | 170.15166 | 7930 ft | 238 kts | 110° |
| 2026-04-24 18:56 | 69.56938 | 170.19520 | 7603 ft | 237 kts | 110° |
| 2026-04-24 18:56 | 69.56303 | 170.23862 | 7266 ft | 236 kts | 110° |
| 2026-04-24 18:56 | 69.55668 | 170.28170 | 6940 ft | 234 kts | 110° |
| 2026-04-24 18:57 | 69.55034 | 170.32453 | 6603 ft | 233 kts | 110° |
| 2026-04-24 18:57 | 69.54405 | 170.36712 | 6256 ft | 232 kts | 110° |
| 2026-04-24 18:57 | 69.53780 | 170.40949 | 5929 ft | 230 kts | 110° |
| 2026-04-24 18:57 | 69.53165 | 170.45135 | 5605 ft | 227 kts | 109° |
| 2026-04-24 18:58 | 69.52899 | 170.49453 | 5401 ft | 217 kts | 85° |
| 2026-04-24 18:58 | 69.53304 | 170.53502 | 5160 ft | 212 kts | 62° |
| 2026-04-24 18:58 | 69.54189 | 170.56859 | 4871 ft | 211 kts | 53° |
| 2026-04-24 18:58 | 69.55117 | 170.60134 | 4571 ft | 208 kts | 53° |
| 2026-04-24 18:59 | 69.56009 | 170.63301 | 4276 ft | 206 kts | 53° |
| 2026-04-24 18:59 | 69.56897 | 170.66460 | 3988 ft | 204 kts | 53° |
| 2026-04-24 18:59 | 69.57803 | 170.69686 | 3694 ft | 203 kts | 53° |
| 2026-04-24 18:59 | 69.58753 | 170.72578 | 3401 ft | 204 kts | 36° |
| 2026-04-24 19:00 | 69.60133 | 170.73197 | 3239 ft | 209 kts | 351° |
| 2026-04-24 19:00 | 69.61433 | 170.71257 | 3051 ft | 210 kts | 334° |
| 2026-04-24 19:00 | 69.62757 | 170.69989 | 2920 ft | 194 kts | 355° |
| 2026-04-24 19:00 | 69.64061 | 170.69222 | 2753 ft | 190 kts | 352° |
| 2026-04-24 19:01 | 69.65352 | 170.68387 | 2512 ft | 192 kts | 351° |
| 2026-04-24 19:01 | 69.66633 | 170.67537 | 2289 ft | 183 kts | 351° |
| 2026-04-24 19:01 | 69.67821 | 170.66742 | 2032 ft | 167 kts | 350° |
| 2026-04-24 19:01 | 69.68887 | 170.66029 | 1808 ft | 147 kts | 350° |
| 2026-04-24 19:02 | 69.69532 | 170.65598 | 1658 ft | 137 kts | 350° |
| 2026-04-24 19:02 | 69.70728 | 170.64801 | 1425 ft | 128 kts | 350° |
| 2026-04-24 19:02 | 69.71589 | 170.64227 | 1239 ft | 126 kts | 350° |
| 2026-04-24 19:02 | 69.72438 | 170.63658 | 1048 ft | 125 kts | 350° |
| 2026-04-24 19:03 | 69.73280 | 170.63095 | 862 ft | 124 kts | 349° |
| 2026-04-24 19:03 | 69.74118 | 170.62532 | 682 ft | 123 kts | 349° |
| 2026-04-24 19:03 | 69.74950 | 170.61974 | 531 ft | 122 kts | 348° |
| 2026-04-24 19:03 | 69.75780 | 170.61410 | 338 ft | 122 kts | 347° |
| 2026-04-24 19:04 | 69.76598 | 170.60788 | 155 ft | 121 kts | 348° |
| 2026-04-24 19:04 | 69.77391 | 170.60274 | 35 ft | 121 kts | 348° |
| 2026-04-24 19:04 | 69.78088 | 170.59835 | 26 ft | 71 kts | 347° |
| 2026-04-24 19:04 | 69.78307 | 170.59678 | 26 ft | 19 kts | 347° |
| 2026-04-24 19:05 | 69.78502 | 170.59544 | 24 ft | 33 kts | 347° |
| 2026-04-24 19:05 | 69.78726 | 170.59393 | 26 ft | 33 kts | 347° |
| 2026-04-24 19:05 | 69.78815 | 170.59523 | 26 ft | 17 kts | 71° |
| 2026-04-24 19:05 | 69.78838 | 170.59807 | 24 ft | 0 kts | 76° |
| 2026-04-24 19:07 | 69.78838 | 170.59812 | 24 ft | 2 kts | 76° |
| 2026-04-24 19:07 | 69.78816 | 170.60043 | 25 ft | 14 kts | 125° |
| 2026-04-24 19:08 | 69.78765 | 170.60193 | 25 ft | 10 kts | 171° |
| 2026-04-24 19:08 | 69.78750 | 170.60110 | 26 ft | 4 kts | 330° |
| 2026-04-24 19:08 | 69.78764 | 170.60135 | 26 ft | 0 kts | 80° |